sensor_id;sensor_type;location;lat;lon;timestamp;P1;durP1;ratioP1;P2;durP2;ratioP2
12776;SDS011;6452;41.572;23.732;2023-05-07T00:01:22;2.97;;;2.33;;
12776;SDS011;6452;41.572;23.732;2023-05-07T00:03:48;2.55;;;2.38;;
12776;SDS011;6452;41.572;23.732;2023-05-07T00:06:15;2.42;;;2.22;;
12776;SDS011;6452;41.572;23.732;2023-05-07T00:08:42;2.88;;;2.65;;
12776;SDS011;6452;41.572;23.732;2023-05-07T00:11:09;2.33;;;2.22;;
12776;SDS011;6452;41.572;23.732;2023-05-07T00:13:35;2.60;;;2.40;;
12776;SDS011;6452;41.572;23.732;2023-05-07T00:16:05;4.32;;;2.92;;
12776;SDS011;6452;41.572;23.732;2023-05-07T00:18:31;2.70;;;2.60;;
12776;SDS011;6452;41.572;23.732;2023-05-07T00:20:57;5.88;;;2.50;;
12776;SDS011;6452;41.572;23.732;2023-05-07T00:23:24;2.35;;;2.25;;
12776;SDS011;6452;41.572;23.732;2023-05-07T00:25:50;3.20;;;2.90;;
12776;SDS011;6452;41.572;23.732;2023-05-07T00:28:16;6.70;;;2.75;;
12776;SDS011;6452;41.572;23.732;2023-05-07T00:30:47;2.88;;;2.67;;
12776;SDS011;6452;41.572;23.732;2023-05-07T00:33:14;2.35;;;2.22;;
12776;SDS011;6452;41.572;23.732;2023-05-07T00:35:41;2.72;;;2.53;;
12776;SDS011;6452;41.572;23.732;2023-05-07T00:38:11;2.53;;;2.35;;
12776;SDS011;6452;41.572;23.732;2023-05-07T00:40:37;2.80;;;2.60;;
12776;SDS011;6452;41.572;23.732;2023-05-07T00:43:04;5.07;;;2.90;;
12776;SDS011;6452;41.572;23.732;2023-05-07T00:45:30;3.50;;;2.63;;
12776;SDS011;6452;41.572;23.732;2023-05-07T00:47:57;3.03;;;2.83;;
12776;SDS011;6452;41.572;23.732;2023-05-07T00:50:23;2.38;;;2.17;;
12776;SDS011;6452;41.572;23.732;2023-05-07T00:52:50;2.28;;;2.17;;
12776;SDS011;6452;41.572;23.732;2023-05-07T00:55:16;4.65;;;2.53;;
12776;SDS011;6452;41.572;23.732;2023-05-07T00:57:42;2.60;;;2.40;;
12776;SDS011;6452;41.572;23.732;2023-05-07T01:00:09;3.63;;;2.47;;
12776;SDS011;6452;41.572;23.732;2023-05-07T01:02:38;2.40;;;2.22;;
12776;SDS011;6452;41.572;23.732;2023-05-07T01:05:05;3.30;;;2.97;;
12776;SDS011;6452;41.572;23.732;2023-05-07T01:07:33;4.30;;;3.25;;
12776;SDS011;6452;41.572;23.732;2023-05-07T01:10:04;3.25;;;3.03;;
12776;SDS011;6452;41.572;23.732;2023-05-07T01:12:30;3.20;;;3.00;;
12776;SDS011;6452;41.572;23.732;2023-05-07T01:14:56;3.47;;;3.22;;
12776;SDS011;6452;41.572;23.732;2023-05-07T01:17:23;2.22;;;2.13;;
12776;SDS011;6452;41.572;23.732;2023-05-07T01:19:48;2.38;;;2.25;;
12776;SDS011;6452;41.572;23.732;2023-05-07T01:22:16;2.60;;;2.40;;
12776;SDS011;6452;41.572;23.732;2023-05-07T01:24:42;2.83;;;2.22;;
12776;SDS011;6452;41.572;23.732;2023-05-07T01:27:08;2.53;;;2.33;;
12776;SDS011;6452;41.572;23.732;2023-05-07T01:29:35;2.30;;;2.20;;
12776;SDS011;6452;41.572;23.732;2023-05-07T01:32:01;2.80;;;2.47;;
12776;SDS011;6452;41.572;23.732;2023-05-07T01:34:32;2.65;;;1.92;;
12776;SDS011;6452;41.572;23.732;2023-05-07T01:36:58;2.13;;;2.03;;
12776;SDS011;6452;41.572;23.732;2023-05-07T01:39:25;2.25;;;2.15;;
12776;SDS011;6452;41.572;23.732;2023-05-07T01:41:53;2.95;;;2.72;;
12776;SDS011;6452;41.572;23.732;2023-05-07T01:44:20;2.20;;;2.10;;
12776;SDS011;6452;41.572;23.732;2023-05-07T01:46:46;2.63;;;2.45;;
12776;SDS011;6452;41.572;23.732;2023-05-07T01:49:13;2.20;;;2.13;;
12776;SDS011;6452;41.572;23.732;2023-05-07T01:51:39;2.92;;;2.72;;
12776;SDS011;6452;41.572;23.732;2023-05-07T01:54:06;2.50;;;2.40;;
12776;SDS011;6452;41.572;23.732;2023-05-07T01:56:33;4.20;;;2.63;;
12776;SDS011;6452;41.572;23.732;2023-05-07T01:58:59;3.58;;;2.95;;
12776;SDS011;6452;41.572;23.732;2023-05-07T02:01:25;2.80;;;2.60;;
12776;SDS011;6452;41.572;23.732;2023-05-07T02:03:51;2.47;;;2.28;;
12776;SDS011;6452;41.572;23.732;2023-05-07T02:06:17;2.20;;;2.08;;
12776;SDS011;6452;41.572;23.732;2023-05-07T02:08:47;2.38;;;2.25;;
12776;SDS011;6452;41.572;23.732;2023-05-07T02:11:14;2.42;;;2.33;;
12776;SDS011;6452;41.572;23.732;2023-05-07T02:13:41;4.45;;;2.40;;
12776;SDS011;6452;41.572;23.732;2023-05-07T02:16:07;2.42;;;2.33;;
12776;SDS011;6452;41.572;23.732;2023-05-07T02:18:32;2.50;;;2.35;;
12776;SDS011;6452;41.572;23.732;2023-05-07T02:20:59;2.38;;;2.25;;
12776;SDS011;6452;41.572;23.732;2023-05-07T02:23:25;2.67;;;2.47;;
12776;SDS011;6452;41.572;23.732;2023-05-07T02:25:51;2.13;;;2.03;;
12776;SDS011;6452;41.572;23.732;2023-05-07T02:28:17;3.05;;;2.80;;
12776;SDS011;6452;41.572;23.732;2023-05-07T02:30:44;2.10;;;2.00;;
12776;SDS011;6452;41.572;23.732;2023-05-07T02:33:10;2.20;;;2.10;;
12776;SDS011;6452;41.572;23.732;2023-05-07T02:35:37;2.97;;;2.78;;
12776;SDS011;6452;41.572;23.732;2023-05-07T02:38:04;4.30;;;2.30;;
12776;SDS011;6452;41.572;23.732;2023-05-07T02:40:29;2.88;;;2.60;;
12776;SDS011;6452;41.572;23.732;2023-05-07T02:42:59;3.13;;;2.80;;
12776;SDS011;6452;41.572;23.732;2023-05-07T02:45:25;4.85;;;3.20;;
12776;SDS011;6452;41.572;23.732;2023-05-07T02:47:51;3.92;;;2.85;;
12776;SDS011;6452;41.572;23.732;2023-05-07T02:50:21;3.60;;;3.00;;
12776;SDS011;6452;41.572;23.732;2023-05-07T02:52:47;2.70;;;2.42;;
12776;SDS011;6452;41.572;23.732;2023-05-07T02:55:13;2.75;;;2.58;;
12776;SDS011;6452;41.572;23.732;2023-05-07T02:57:40;2.58;;;2.40;;
12776;SDS011;6452;41.572;23.732;2023-05-07T03:00:11;2.80;;;2.55;;
12776;SDS011;6452;41.572;23.732;2023-05-07T03:02:37;2.65;;;2.45;;
12776;SDS011;6452;41.572;23.732;2023-05-07T03:05:03;3.40;;;3.10;;
12776;SDS011;6452;41.572;23.732;2023-05-07T03:07:30;3.25;;;2.95;;
12776;SDS011;6452;41.572;23.732;2023-05-07T03:09:57;2.97;;;2.80;;
12776;SDS011;6452;41.572;23.732;2023-05-07T03:12:23;3.15;;;2.95;;
12776;SDS011;6452;41.572;23.732;2023-05-07T03:14:49;3.72;;;3.30;;
12776;SDS011;6452;41.572;23.732;2023-05-07T03:17:16;2.88;;;2.67;;
12776;SDS011;6452;41.572;23.732;2023-05-07T03:19:42;2.78;;;2.58;;
12776;SDS011;6452;41.572;23.732;2023-05-07T03:22:08;2.83;;;2.63;;
12776;SDS011;6452;41.572;23.732;2023-05-07T03:24:38;6.32;;;3.10;;
12776;SDS011;6452;41.572;23.732;2023-05-07T03:27:03;3.17;;;2.88;;
12776;SDS011;6452;41.572;23.732;2023-05-07T03:29:30;3.78;;;3.47;;
12776;SDS011;6452;41.572;23.732;2023-05-07T03:31:56;4.72;;;3.97;;
12776;SDS011;6452;41.572;23.732;2023-05-07T03:34:22;6.57;;;4.25;;
12776;SDS011;6452;41.572;23.732;2023-05-07T03:36:49;6.72;;;4.80;;
12776;SDS011;6452;41.572;23.732;2023-05-07T03:39:15;7.72;;;5.97;;
12776;SDS011;6452;41.572;23.732;2023-05-07T03:41:41;6.93;;;6.03;;
12776;SDS011;6452;41.572;23.732;2023-05-07T03:44:07;5.10;;;4.60;;
12776;SDS011;6452;41.572;23.732;2023-05-07T03:46:34;3.42;;;3.13;;
12776;SDS011;6452;41.572;23.732;2023-05-07T03:49:00;2.92;;;2.75;;
12776;SDS011;6452;41.572;23.732;2023-05-07T03:51:26;2.97;;;2.78;;
12776;SDS011;6452;41.572;23.732;2023-05-07T03:53:53;4.07;;;3.55;;
12776;SDS011;6452;41.572;23.732;2023-05-07T03:56:19;7.20;;;4.30;;
12776;SDS011;6452;41.572;23.732;2023-05-07T03:58:47;4.32;;;3.60;;
12776;SDS011;6452;41.572;23.732;2023-05-07T04:01:13;4.68;;;4.00;;
12776;SDS011;6452;41.572;23.732;2023-05-07T04:03:39;3.10;;;2.90;;
12776;SDS011;6452;41.572;23.732;2023-05-07T04:06:04;4.03;;;3.63;;
12776;SDS011;6452;41.572;23.732;2023-05-07T04:08:31;6.57;;;5.13;;
12776;SDS011;6452;41.572;23.732;2023-05-07T04:10:57;6.53;;;5.30;;
12776;SDS011;6452;41.572;23.732;2023-05-07T04:13:24;5.35;;;4.45;;
12776;SDS011;6452;41.572;23.732;2023-05-07T04:15:51;7.32;;;5.03;;
12776;SDS011;6452;41.572;23.732;2023-05-07T04:18:17;5.38;;;4.57;;
12776;SDS011;6452;41.572;23.732;2023-05-07T04:20:43;4.50;;;3.88;;
12776;SDS011;6452;41.572;23.732;2023-05-07T04:23:09;5.05;;;3.22;;
12776;SDS011;6452;41.572;23.732;2023-05-07T04:25:37;5.60;;;3.95;;
12776;SDS011;6452;41.572;23.732;2023-05-07T04:28:03;4.15;;;3.80;;
12776;SDS011;6452;41.572;23.732;2023-05-07T04:30:31;5.57;;;4.25;;
12776;SDS011;6452;41.572;23.732;2023-05-07T04:32:57;4.90;;;4.43;;
12776;SDS011;6452;41.572;23.732;2023-05-07T04:35:24;5.80;;;4.60;;
12776;SDS011;6452;41.572;23.732;2023-05-07T04:37:50;4.88;;;4.47;;
12776;SDS011;6452;41.572;23.732;2023-05-07T04:40:16;3.90;;;3.40;;
12776;SDS011;6452;41.572;23.732;2023-05-07T04:42:42;4.10;;;3.72;;
12776;SDS011;6452;41.572;23.732;2023-05-07T04:45:08;4.38;;;3.90;;
12776;SDS011;6452;41.572;23.732;2023-05-07T04:47:35;5.15;;;3.75;;
12776;SDS011;6452;41.572;23.732;2023-05-07T04:50:01;6.60;;;4.03;;
12776;SDS011;6452;41.572;23.732;2023-05-07T04:52:27;8.80;;;4.25;;
12776;SDS011;6452;41.572;23.732;2023-05-07T04:54:53;7.70;;;5.30;;
12776;SDS011;6452;41.572;23.732;2023-05-07T04:57:20;4.60;;;4.07;;
12776;SDS011;6452;41.572;23.732;2023-05-07T04:59:46;6.22;;;4.93;;
12776;SDS011;6452;41.572;23.732;2023-05-07T05:02:12;5.57;;;5.05;;
12776;SDS011;6452;41.572;23.732;2023-05-07T05:04:39;5.95;;;4.78;;
12776;SDS011;6452;41.572;23.732;2023-05-07T05:07:05;5.22;;;4.80;;
12776;SDS011;6452;41.572;23.732;2023-05-07T05:09:31;4.28;;;3.85;;
12776;SDS011;6452;41.572;23.732;2023-05-07T05:11:58;4.60;;;4.07;;
12776;SDS011;6452;41.572;23.732;2023-05-07T05:14:24;4.05;;;3.70;;
12776;SDS011;6452;41.572;23.732;2023-05-07T05:16:50;5.47;;;3.78;;
12776;SDS011;6452;41.572;23.732;2023-05-07T05:19:16;3.80;;;3.50;;
12776;SDS011;6452;41.572;23.732;2023-05-07T05:21:42;6.80;;;4.88;;
12776;SDS011;6452;41.572;23.732;2023-05-07T05:24:09;4.10;;;3.72;;
12776;SDS011;6452;41.572;23.732;2023-05-07T05:26:35;4.00;;;3.70;;
12776;SDS011;6452;41.572;23.732;2023-05-07T05:29:05;6.43;;;4.55;;
12776;SDS011;6452;41.572;23.732;2023-05-07T05:31:31;4.68;;;4.28;;
12776;SDS011;6452;41.572;23.732;2023-05-07T05:33:59;5.03;;;4.32;;
12776;SDS011;6452;41.572;23.732;2023-05-07T05:36:24;4.43;;;4.00;;
12776;SDS011;6452;41.572;23.732;2023-05-07T05:38:51;4.13;;;3.72;;
12776;SDS011;6452;41.572;23.732;2023-05-07T05:41:17;3.78;;;3.47;;
12776;SDS011;6452;41.572;23.732;2023-05-07T05:43:43;4.10;;;3.70;;
12776;SDS011;6452;41.572;23.732;2023-05-07T05:46:09;4.18;;;3.85;;
12776;SDS011;6452;41.572;23.732;2023-05-07T05:48:37;3.60;;;3.30;;
12776;SDS011;6452;41.572;23.732;2023-05-07T05:51:03;3.45;;;3.22;;
12776;SDS011;6452;41.572;23.732;2023-05-07T05:53:29;3.58;;;3.20;;
12776;SDS011;6452;41.572;23.732;2023-05-07T05:55:59;3.25;;;3.00;;
12776;SDS011;6452;41.572;23.732;2023-05-07T05:58:29;3.08;;;2.88;;
12776;SDS011;6452;41.572;23.732;2023-05-07T06:01:00;3.70;;;3.45;;
12776;SDS011;6452;41.572;23.732;2023-05-07T06:03:28;2.83;;;2.72;;
12776;SDS011;6452;41.572;23.732;2023-05-07T06:05:54;3.47;;;3.17;;
12776;SDS011;6452;41.572;23.732;2023-05-07T06:08:20;3.60;;;3.30;;
12776;SDS011;6452;41.572;23.732;2023-05-07T06:10:46;3.97;;;2.72;;
12776;SDS011;6452;41.572;23.732;2023-05-07T06:13:12;3.33;;;3.03;;
12776;SDS011;6452;41.572;23.732;2023-05-07T06:15:38;2.67;;;2.58;;
12776;SDS011;6452;41.572;23.732;2023-05-07T06:18:05;3.00;;;2.90;;
12776;SDS011;6452;41.572;23.732;2023-05-07T06:20:31;3.30;;;2.90;;
12776;SDS011;6452;41.572;23.732;2023-05-07T06:22:57;2.70;;;2.50;;
12776;SDS011;6452;41.572;23.732;2023-05-07T06:25:23;2.95;;;2.75;;
12776;SDS011;6452;41.572;23.732;2023-05-07T06:27:49;3.25;;;3.03;;
12776;SDS011;6452;41.572;23.732;2023-05-07T06:30:15;2.97;;;2.78;;
12776;SDS011;6452;41.572;23.732;2023-05-07T06:32:41;3.28;;;3.00;;
12776;SDS011;6452;41.572;23.732;2023-05-07T06:35:07;3.35;;;2.92;;
12776;SDS011;6452;41.572;23.732;2023-05-07T06:37:38;3.65;;;2.95;;
12776;SDS011;6452;41.572;23.732;2023-05-07T06:40:08;3.22;;;2.85;;
12776;SDS011;6452;41.572;23.732;2023-05-07T06:42:35;3.30;;;3.10;;
12776;SDS011;6452;41.572;23.732;2023-05-07T06:45:00;2.70;;;2.50;;
12776;SDS011;6452;41.572;23.732;2023-05-07T06:47:28;4.53;;;3.03;;
12776;SDS011;6452;41.572;23.732;2023-05-07T06:49:54;4.60;;;3.33;;
12776;SDS011;6452;41.572;23.732;2023-05-07T06:52:20;3.60;;;3.30;;
12776;SDS011;6452;41.572;23.732;2023-05-07T06:54:46;4.63;;;3.38;;
12776;SDS011;6452;41.572;23.732;2023-05-07T06:57:13;3.30;;;3.10;;
12776;SDS011;6452;41.572;23.732;2023-05-07T06:59:38;3.33;;;3.13;;
12776;SDS011;6452;41.572;23.732;2023-05-07T07:02:05;3.38;;;3.10;;
12776;SDS011;6452;41.572;23.732;2023-05-07T07:04:31;3.33;;;3.13;;
12776;SDS011;6452;41.572;23.732;2023-05-07T07:06:57;3.38;;;3.08;;
12776;SDS011;6452;41.572;23.732;2023-05-07T07:09:24;2.95;;;2.70;;
12776;SDS011;6452;41.572;23.732;2023-05-07T07:11:50;2.97;;;2.70;;
12776;SDS011;6452;41.572;23.732;2023-05-07T07:14:16;2.67;;;2.50;;
12776;SDS011;6452;41.572;23.732;2023-05-07T07:16:42;2.75;;;2.60;;
12776;SDS011;6452;41.572;23.732;2023-05-07T07:19:08;3.17;;;2.85;;
12776;SDS011;6452;41.572;23.732;2023-05-07T07:21:35;3.03;;;2.53;;
12776;SDS011;6452;41.572;23.732;2023-05-07T07:24:00;2.50;;;2.30;;
12776;SDS011;6452;41.572;23.732;2023-05-07T07:26:27;2.00;;;1.92;;
12776;SDS011;6452;41.572;23.732;2023-05-07T07:28:53;3.08;;;2.70;;
12776;SDS011;6452;41.572;23.732;2023-05-07T07:31:19;2.38;;;2.28;;
12776;SDS011;6452;41.572;23.732;2023-05-07T07:33:45;2.70;;;2.60;;
12776;SDS011;6452;41.572;23.732;2023-05-07T07:36:11;2.55;;;2.45;;
12776;SDS011;6452;41.572;23.732;2023-05-07T07:38:40;2.05;;;2.05;;
12776;SDS011;6452;41.572;23.732;2023-05-07T07:41:07;2.30;;;2.10;;
12776;SDS011;6452;41.572;23.732;2023-05-07T07:43:37;2.60;;;2.40;;
12776;SDS011;6452;41.572;23.732;2023-05-07T07:46:03;2.85;;;2.30;;
12776;SDS011;6452;41.572;23.732;2023-05-07T07:48:30;2.33;;;2.22;;
12776;SDS011;6452;41.572;23.732;2023-05-07T07:50:56;2.55;;;2.45;;
12776;SDS011;6452;41.572;23.732;2023-05-07T07:53:22;2.28;;;2.10;;
12776;SDS011;6452;41.572;23.732;2023-05-07T07:55:48;1.90;;;1.90;;
12776;SDS011;6452;41.572;23.732;2023-05-07T07:58:14;1.95;;;1.85;;
12776;SDS011;6452;41.572;23.732;2023-05-07T08:00:40;2.00;;;1.90;;
12776;SDS011;6452;41.572;23.732;2023-05-07T08:03:08;2.08;;;1.98;;
12776;SDS011;6452;41.572;23.732;2023-05-07T08:05:34;2.03;;;2.00;;
12776;SDS011;6452;41.572;23.732;2023-05-07T08:08:01;1.88;;;1.77;;
12776;SDS011;6452;41.572;23.732;2023-05-07T08:10:28;1.95;;;1.85;;
12776;SDS011;6452;41.572;23.732;2023-05-07T08:12:54;2.13;;;2.00;;
12776;SDS011;6452;41.572;23.732;2023-05-07T08:15:20;1.70;;;1.70;;
12776;SDS011;6452;41.572;23.732;2023-05-07T08:17:47;1.58;;;1.58;;
12776;SDS011;6452;41.572;23.732;2023-05-07T08:20:13;1.95;;;1.85;;
12776;SDS011;6452;41.572;23.732;2023-05-07T08:22:39;2.33;;;2.22;;
12776;SDS011;6452;41.572;23.732;2023-05-07T08:25:05;1.52;;;1.52;;
12776;SDS011;6452;41.572;23.732;2023-05-07T08:27:32;1.92;;;1.83;;
12776;SDS011;6452;41.572;23.732;2023-05-07T08:29:58;2.05;;;1.95;;
12776;SDS011;6452;41.572;23.732;2023-05-07T08:32:24;2.03;;;1.92;;
12776;SDS011;6452;41.572;23.732;2023-05-07T08:34:50;2.00;;;1.90;;
12776;SDS011;6452;41.572;23.732;2023-05-07T08:37:16;1.77;;;1.67;;
12776;SDS011;6452;41.572;23.732;2023-05-07T08:39:42;2.05;;;1.95;;
12776;SDS011;6452;41.572;23.732;2023-05-07T08:42:08;1.77;;;1.77;;
12776;SDS011;6452;41.572;23.732;2023-05-07T08:44:35;2.10;;;2.00;;
12776;SDS011;6452;41.572;23.732;2023-05-07T08:47:03;2.15;;;1.95;;
12776;SDS011;6452;41.572;23.732;2023-05-07T08:49:36;1.77;;;1.67;;
12776;SDS011;6452;41.572;23.732;2023-05-07T08:52:02;1.70;;;1.67;;
12776;SDS011;6452;41.572;23.732;2023-05-07T08:54:28;1.52;;;1.50;;
12776;SDS011;6452;41.572;23.732;2023-05-07T08:56:55;1.70;;;1.70;;
12776;SDS011;6452;41.572;23.732;2023-05-07T08:59:21;2.00;;;1.88;;
12776;SDS011;6452;41.572;23.732;2023-05-07T09:01:47;1.80;;;1.80;;
12776;SDS011;6452;41.572;23.732;2023-05-07T09:04:13;1.52;;;1.52;;
12776;SDS011;6452;41.572;23.732;2023-05-07T09:06:43;1.63;;;1.63;;
12776;SDS011;6452;41.572;23.732;2023-05-07T09:09:10;1.48;;;1.48;;
12776;SDS011;6452;41.572;23.732;2023-05-07T09:11:39;1.60;;;1.48;;
12776;SDS011;6452;41.572;23.732;2023-05-07T09:14:05;1.90;;;1.80;;
12776;SDS011;6452;41.572;23.732;2023-05-07T09:16:35;1.50;;;1.50;;
12776;SDS011;6452;41.572;23.732;2023-05-07T09:19:01;1.60;;;1.55;;
12776;SDS011;6452;41.572;23.732;2023-05-07T09:21:27;1.70;;;1.60;;
12776;SDS011;6452;41.572;23.732;2023-05-07T09:23:54;1.60;;;1.50;;
12776;SDS011;6452;41.572;23.732;2023-05-07T09:26:23;2.03;;;1.88;;
12776;SDS011;6452;41.572;23.732;2023-05-07T09:28:50;1.50;;;1.50;;
12776;SDS011;6452;41.572;23.732;2023-05-07T09:31:17;1.63;;;1.63;;
12776;SDS011;6452;41.572;23.732;2023-05-07T09:33:43;1.35;;;1.35;;
12776;SDS011;6452;41.572;23.732;2023-05-07T09:36:09;1.60;;;1.60;;
12776;SDS011;6452;41.572;23.732;2023-05-07T09:38:36;1.52;;;1.40;;
12776;SDS011;6452;41.572;23.732;2023-05-07T09:41:04;1.30;;;1.30;;
12776;SDS011;6452;41.572;23.732;2023-05-07T09:43:33;1.38;;;1.38;;
12776;SDS011;6452;41.572;23.732;2023-05-07T09:46:13;1.30;;;1.30;;
12776;SDS011;6452;41.572;23.732;2023-05-07T09:48:40;1.48;;;1.48;;
12776;SDS011;6452;41.572;23.732;2023-05-07T09:51:10;1.55;;;1.55;;
12776;SDS011;6452;41.572;23.732;2023-05-07T09:53:37;1.48;;;1.48;;
12776;SDS011;6452;41.572;23.732;2023-05-07T09:56:03;1.90;;;1.70;;
12776;SDS011;6452;41.572;23.732;2023-05-07T09:58:29;1.40;;;1.40;;
12776;SDS011;6452;41.572;23.732;2023-05-07T10:00:56;1.33;;;1.33;;
12776;SDS011;6452;41.572;23.732;2023-05-07T10:03:22;1.58;;;1.48;;
12776;SDS011;6452;41.572;23.732;2023-05-07T10:05:53;1.10;;;1.10;;
12776;SDS011;6452;41.572;23.732;2023-05-07T10:08:20;1.42;;;1.33;;
12776;SDS011;6452;41.572;23.732;2023-05-07T10:10:47;1.40;;;1.40;;
12776;SDS011;6452;41.572;23.732;2023-05-07T10:13:14;1.40;;;1.40;;
12776;SDS011;6452;41.572;23.732;2023-05-07T10:15:45;1.52;;;1.52;;
12776;SDS011;6452;41.572;23.732;2023-05-07T10:18:11;1.33;;;1.33;;
12776;SDS011;6452;41.572;23.732;2023-05-07T10:20:38;1.58;;;1.48;;
12776;SDS011;6452;41.572;23.732;2023-05-07T10:23:04;1.42;;;1.42;;
12776;SDS011;6452;41.572;23.732;2023-05-07T10:25:31;1.25;;;1.25;;
12776;SDS011;6452;41.572;23.732;2023-05-07T10:27:59;1.60;;;1.48;;
12776;SDS011;6452;41.572;23.732;2023-05-07T10:30:33;1.63;;;1.30;;
12776;SDS011;6452;41.572;23.732;2023-05-07T10:33:04;1.10;;;1.10;;
12776;SDS011;6452;41.572;23.732;2023-05-07T10:35:37;1.33;;;1.33;;
12776;SDS011;6452;41.572;23.732;2023-05-07T10:38:04;1.00;;;1.00;;
12776;SDS011;6452;41.572;23.732;2023-05-07T10:40:30;1.30;;;1.30;;
12776;SDS011;6452;41.572;23.732;2023-05-07T10:42:58;1.10;;;1.10;;
12776;SDS011;6452;41.572;23.732;2023-05-07T10:45:28;1.30;;;1.30;;
12776;SDS011;6452;41.572;23.732;2023-05-07T10:50:35;1.23;;;1.15;;
12776;SDS011;6452;41.572;23.732;2023-05-07T10:53:20;1.30;;;1.30;;
12776;SDS011;6452;41.572;23.732;2023-05-07T10:56:23;1.20;;;1.20;;
12776;SDS011;6452;41.572;23.732;2023-05-07T10:58:50;1.00;;;1.00;;
12776;SDS011;6452;41.572;23.732;2023-05-07T11:01:15;3.60;;;1.50;;
12776;SDS011;6452;41.572;23.732;2023-05-07T11:04:14;1.25;;;1.20;;
12776;SDS011;6452;41.572;23.732;2023-05-07T11:06:40;1.10;;;1.10;;
12776;SDS011;6452;41.572;23.732;2023-05-07T11:09:06;1.10;;;1.10;;
12776;SDS011;6452;41.572;23.732;2023-05-07T11:11:45;1.10;;;1.10;;
12776;SDS011;6452;41.572;23.732;2023-05-07T11:14:12;1.65;;;1.35;;
12776;SDS011;6452;41.572;23.732;2023-05-07T11:16:39;1.00;;;1.00;;
12776;SDS011;6452;41.572;23.732;2023-05-07T11:19:05;1.17;;;1.17;;
12776;SDS011;6452;41.572;23.732;2023-05-07T11:23:58;1.20;;;1.20;;
12776;SDS011;6452;41.572;23.732;2023-05-07T11:26:24;1.20;;;1.20;;
12776;SDS011;6452;41.572;23.732;2023-05-07T11:28:50;1.33;;;1.33;;
12776;SDS011;6452;41.572;23.732;2023-05-07T11:31:20;1.20;;;1.20;;
12776;SDS011;6452;41.572;23.732;2023-05-07T11:33:46;1.20;;;1.20;;
12776;SDS011;6452;41.572;23.732;2023-05-07T11:36:13;1.30;;;1.30;;
12776;SDS011;6452;41.572;23.732;2023-05-07T11:38:39;1.10;;;1.10;;
12776;SDS011;6452;41.572;23.732;2023-05-07T11:41:06;1.30;;;1.30;;
12776;SDS011;6452;41.572;23.732;2023-05-07T11:43:32;1.10;;;1.10;;
12776;SDS011;6452;41.572;23.732;2023-05-07T11:46:05;1.58;;;1.58;;
12776;SDS011;6452;41.572;23.732;2023-05-07T11:48:32;1.38;;;1.25;;
12776;SDS011;6452;41.572;23.732;2023-05-07T11:53:25;1.20;;;1.20;;
12776;SDS011;6452;41.572;23.732;2023-05-07T11:55:57;1.45;;;1.38;;
12776;SDS011;6452;41.572;23.732;2023-05-07T11:58:23;1.35;;;1.35;;
12776;SDS011;6452;41.572;23.732;2023-05-07T12:00:50;1.25;;;1.25;;
12776;SDS011;6452;41.572;23.732;2023-05-07T12:03:16;1.67;;;1.58;;
12776;SDS011;6452;41.572;23.732;2023-05-07T12:05:43;1.42;;;1.42;;
12776;SDS011;6452;41.572;23.732;2023-05-07T12:08:13;1.20;;;1.20;;
12776;SDS011;6452;41.572;23.732;2023-05-07T12:10:40;1.50;;;1.50;;
12776;SDS011;6452;41.572;23.732;2023-05-07T12:13:13;1.30;;;1.30;;
12776;SDS011;6452;41.572;23.732;2023-05-07T12:15:39;1.30;;;1.30;;
12776;SDS011;6452;41.572;23.732;2023-05-07T12:18:06;1.40;;;1.40;;
12776;SDS011;6452;41.572;23.732;2023-05-07T12:20:31;1.13;;;1.13;;
12776;SDS011;6452;41.572;23.732;2023-05-07T12:22:59;1.58;;;1.58;;
12776;SDS011;6452;41.572;23.732;2023-05-07T12:25:25;1.83;;;1.80;;
12776;SDS011;6452;41.572;23.732;2023-05-07T12:27:52;1.98;;;1.88;;
12776;SDS011;6452;41.572;23.732;2023-05-07T12:30:18;1.80;;;1.80;;
12776;SDS011;6452;41.572;23.732;2023-05-07T12:32:45;1.70;;;1.70;;
12776;SDS011;6452;41.572;23.732;2023-05-07T12:35:11;1.70;;;1.60;;
12776;SDS011;6452;41.572;23.732;2023-05-07T12:37:37;1.75;;;1.65;;
12776;SDS011;6452;41.572;23.732;2023-05-07T12:40:07;1.65;;;1.30;;
12776;SDS011;6452;41.572;23.732;2023-05-07T12:42:33;1.48;;;1.48;;
12776;SDS011;6452;41.572;23.732;2023-05-07T12:45:07;1.88;;;1.77;;
12776;SDS011;6452;41.572;23.732;2023-05-07T12:47:33;1.40;;;1.40;;
12776;SDS011;6452;41.572;23.732;2023-05-07T12:49:59;1.52;;;1.42;;
12776;SDS011;6452;41.572;23.732;2023-05-07T12:52:25;1.50;;;1.40;;
12776;SDS011;6452;41.572;23.732;2023-05-07T12:54:51;1.17;;;1.17;;
12776;SDS011;6452;41.572;23.732;2023-05-07T12:57:19;1.65;;;1.40;;
12776;SDS011;6452;41.572;23.732;2023-05-07T12:59:45;1.33;;;1.27;;
12776;SDS011;6452;41.572;23.732;2023-05-07T13:02:11;1.20;;;1.20;;
12776;SDS011;6452;41.572;23.732;2023-05-07T13:04:37;1.70;;;1.60;;
12776;SDS011;6452;41.572;23.732;2023-05-07T13:07:03;1.70;;;1.60;;
12776;SDS011;6452;41.572;23.732;2023-05-07T13:09:29;1.50;;;1.38;;
12776;SDS011;6452;41.572;23.732;2023-05-07T13:11:57;1.70;;;1.60;;
12776;SDS011;6452;41.572;23.732;2023-05-07T13:14:25;1.30;;;1.30;;
12776;SDS011;6452;41.572;23.732;2023-05-07T13:16:51;1.30;;;1.30;;
12776;SDS011;6452;41.572;23.732;2023-05-07T13:19:17;1.45;;;1.45;;
12776;SDS011;6452;41.572;23.732;2023-05-07T13:21:44;2.55;;;1.48;;
12776;SDS011;6452;41.572;23.732;2023-05-07T13:24:10;1.88;;;1.77;;
12776;SDS011;6452;41.572;23.732;2023-05-07T13:26:36;2.13;;;1.35;;
12776;SDS011;6452;41.572;23.732;2023-05-07T13:29:02;1.60;;;1.50;;
12776;SDS011;6452;41.572;23.732;2023-05-07T13:31:29;1.55;;;1.45;;
12776;SDS011;6452;41.572;23.732;2023-05-07T13:33:55;2.55;;;1.60;;
12776;SDS011;6452;41.572;23.732;2023-05-07T13:36:21;1.60;;;1.60;;
12776;SDS011;6452;41.572;23.732;2023-05-07T13:38:48;2.40;;;1.70;;
12776;SDS011;6452;41.572;23.732;2023-05-07T13:41:14;1.50;;;1.50;;
12776;SDS011;6452;41.572;23.732;2023-05-07T13:43:41;1.88;;;1.85;;
12776;SDS011;6452;41.572;23.732;2023-05-07T13:46:07;1.58;;;1.50;;
12776;SDS011;6452;41.572;23.732;2023-05-07T13:48:34;1.55;;;1.55;;
12776;SDS011;6452;41.572;23.732;2023-05-07T13:51:00;2.03;;;1.92;;
12776;SDS011;6452;41.572;23.732;2023-05-07T13:53:26;1.70;;;1.60;;
12776;SDS011;6452;41.572;23.732;2023-05-07T13:55:53;1.55;;;1.55;;
12776;SDS011;6452;41.572;23.732;2023-05-07T13:58:19;1.35;;;1.35;;
12776;SDS011;6452;41.572;23.732;2023-05-07T14:00:45;2.03;;;1.73;;
12776;SDS011;6452;41.572;23.732;2023-05-07T14:03:11;1.60;;;1.50;;
12776;SDS011;6452;41.572;23.732;2023-05-07T14:05:37;2.03;;;1.70;;
12776;SDS011;6452;41.572;23.732;2023-05-07T14:08:04;1.90;;;1.80;;
12776;SDS011;6452;41.572;23.732;2023-05-07T14:10:30;1.73;;;1.63;;
12776;SDS011;6452;41.572;23.732;2023-05-07T14:12:57;1.90;;;1.80;;
12776;SDS011;6452;41.572;23.732;2023-05-07T14:15:23;2.05;;;1.95;;
12776;SDS011;6452;41.572;23.732;2023-05-07T14:17:49;1.70;;;1.60;;
12776;SDS011;6452;41.572;23.732;2023-05-07T14:20:16;1.70;;;1.70;;
12776;SDS011;6452;41.572;23.732;2023-05-07T14:22:42;1.63;;;1.52;;
12776;SDS011;6452;41.572;23.732;2023-05-07T14:25:08;1.67;;;1.67;;
12776;SDS011;6452;41.572;23.732;2023-05-07T14:27:35;1.90;;;1.80;;
12776;SDS011;6452;41.572;23.732;2023-05-07T14:30:01;1.60;;;1.50;;
12776;SDS011;6452;41.572;23.732;2023-05-07T14:32:27;1.38;;;1.38;;
12776;SDS011;6452;41.572;23.732;2023-05-07T14:34:57;1.75;;;1.65;;
12776;SDS011;6452;41.572;23.732;2023-05-07T14:37:24;2.35;;;1.88;;
12776;SDS011;6452;41.572;23.732;2023-05-07T14:39:50;1.85;;;1.75;;
12776;SDS011;6452;41.572;23.732;2023-05-07T14:42:16;2.03;;;1.92;;
12776;SDS011;6452;41.572;23.732;2023-05-07T14:44:42;1.90;;;1.80;;
12776;SDS011;6452;41.572;23.732;2023-05-07T14:47:10;1.83;;;1.73;;
12776;SDS011;6452;41.572;23.732;2023-05-07T14:49:37;1.52;;;1.50;;
12776;SDS011;6452;41.572;23.732;2023-05-07T14:52:03;1.60;;;1.55;;
12776;SDS011;6452;41.572;23.732;2023-05-07T14:54:33;1.70;;;1.63;;